sensor_id;sensor_type;location;lat;lon;timestamp;pressure;altitude;pressure_sealevel;temperature;humidity
34205;BME280;20471;49.680;20.074;2023-04-09T00:02:18;97747.07;;;3.80;77.94
34205;BME280;20471;49.680;20.074;2023-04-09T00:04:46;97749.61;;;3.80;77.97
34205;BME280;20471;49.680;20.074;2023-04-09T00:07:14;97748.82;;;3.75;78.00
34205;BME280;20471;49.680;20.074;2023-04-09T00:09:42;97747.26;;;3.74;78.03
34205;BME280;20471;49.680;20.074;2023-04-09T00:12:10;97745.16;;;3.74;78.08
34205;BME280;20471;49.680;20.074;2023-04-09T00:14:38;97744.88;;;3.77;78.11
34205;BME280;20471;49.680;20.074;2023-04-09T00:17:06;97746.83;;;3.79;78.20
34205;BME280;20471;49.680;20.074;2023-04-09T00:19:34;97749.12;;;3.77;78.09
34205;BME280;20471;49.680;20.074;2023-04-09T00:22:02;97750.84;;;3.76;78.13
34205;BME280;20471;49.680;20.074;2023-04-09T00:24:31;97751.26;;;3.77;78.18
34205;BME280;20471;49.680;20.074;2023-04-09T00:26:59;97751.79;;;3.78;78.18
34205;BME280;20471;49.680;20.074;2023-04-09T00:29:27;97750.92;;;3.77;78.18
34205;BME280;20471;49.680;20.074;2023-04-09T00:31:55;97754.27;;;3.78;78.24
34205;BME280;20471;49.680;20.074;2023-04-09T00:34:23;97755.14;;;3.80;78.29
34205;BME280;20471;49.680;20.074;2023-04-09T00:36:51;97755.52;;;3.81;78.26
34205;BME280;20471;49.680;20.074;2023-04-09T00:39:19;97755.66;;;3.81;78.31
34205;BME280;20471;49.680;20.074;2023-04-09T00:41:47;97752.38;;;3.82;78.35
34205;BME280;20471;49.680;20.074;2023-04-09T00:44:15;97752.83;;;3.81;78.39
34205;BME280;20471;49.680;20.074;2023-04-09T00:46:43;97749.95;;;3.82;78.36
34205;BME280;20471;49.680;20.074;2023-04-09T00:49:11;97748.73;;;3.81;78.38
34205;BME280;20471;49.680;20.074;2023-04-09T00:51:39;97750.79;;;3.82;78.44
34205;BME280;20471;49.680;20.074;2023-04-09T00:54:07;97753.28;;;3.82;78.43
34205;BME280;20471;49.680;20.074;2023-04-09T00:56:36;97752.95;;;3.82;78.42
34205;BME280;20471;49.680;20.074;2023-04-09T00:59:05;97753.14;;;3.80;78.53
34205;BME280;20471;49.680;20.074;2023-04-09T01:01:33;97749.09;;;3.78;78.58
34205;BME280;20471;49.680;20.074;2023-04-09T01:04:01;97748.05;;;3.78;78.56
34205;BME280;20471;49.680;20.074;2023-04-09T01:09:42;97751.27;;;3.76;78.71
34205;BME280;20471;49.680;20.074;2023-04-09T01:12:25;97749.77;;;3.76;78.81
34205;BME280;20471;49.680;20.074;2023-04-09T01:15:06;97746.45;;;3.77;78.80
34205;BME280;20471;49.680;20.074;2023-04-09T01:20:29;97752.00;;;3.79;78.78
34205;BME280;20471;49.680;20.074;2023-04-09T01:25:55;97750.23;;;3.75;78.93
34205;BME280;20471;49.680;20.074;2023-04-09T01:28:42;97753.71;;;3.76;78.98
34205;BME280;20471;49.680;20.074;2023-04-09T01:31:14;97754.55;;;3.77;79.10
34205;BME280;20471;49.680;20.074;2023-04-09T01:33:44;97755.06;;;3.74;79.12
34205;BME280;20471;49.680;20.074;2023-04-09T01:36:13;97759.52;;;3.72;79.14
34205;BME280;20471;49.680;20.074;2023-04-09T01:38:42;97762.13;;;3.73;79.17
34205;BME280;20471;49.680;20.074;2023-04-09T01:41:16;97764.92;;;3.75;79.24
34205;BME280;20471;49.680;20.074;2023-04-09T01:43:45;97761.16;;;3.73;79.23
34205;BME280;20471;49.680;20.074;2023-04-09T01:46:14;97760.63;;;3.72;79.31
34205;BME280;20471;49.680;20.074;2023-04-09T01:48:43;97756.52;;;3.72;79.27
34205;BME280;20471;49.680;20.074;2023-04-09T01:51:13;97758.55;;;3.74;79.27
34205;BME280;20471;49.680;20.074;2023-04-09T01:53:41;97763.01;;;3.78;79.33
34205;BME280;20471;49.680;20.074;2023-04-09T01:56:09;97765.25;;;3.80;79.32
34205;BME280;20471;49.680;20.074;2023-04-09T01:58:37;97762.98;;;3.79;79.28
34205;BME280;20471;49.680;20.074;2023-04-09T02:01:12;97763.44;;;3.78;79.32
34205;BME280;20471;49.680;20.074;2023-04-09T02:04:13;97763.40;;;3.77;79.39
34205;BME280;20471;49.680;20.074;2023-04-09T02:07:00;97760.42;;;3.73;79.40
34205;BME280;20471;49.680;20.074;2023-04-09T02:09:34;97761.63;;;3.72;79.38
34205;BME280;20471;49.680;20.074;2023-04-09T02:12:05;97764.66;;;3.74;79.44
34205;BME280;20471;49.680;20.074;2023-04-09T02:14:34;97765.64;;;3.76;79.50
34205;BME280;20471;49.680;20.074;2023-04-09T02:17:02;97764.27;;;3.77;79.53
34205;BME280;20471;49.680;20.074;2023-04-09T02:19:44;97764.73;;;3.76;79.47
34205;BME280;20471;49.680;20.074;2023-04-09T02:22:13;97764.45;;;3.76;79.53
34205;BME280;20471;49.680;20.074;2023-04-09T02:24:42;97760.65;;;3.76;79.58
34205;BME280;20471;49.680;20.074;2023-04-09T02:27:10;97762.45;;;3.76;79.54
34205;BME280;20471;49.680;20.074;2023-04-09T02:29:40;97764.69;;;3.75;79.55
34205;BME280;20471;49.680;20.074;2023-04-09T02:32:08;97760.73;;;3.76;79.58
34205;BME280;20471;49.680;20.074;2023-04-09T02:34:37;97757.34;;;3.77;79.60
34205;BME280;20471;49.680;20.074;2023-04-09T02:37:05;97760.30;;;3.78;79.61
34205;BME280;20471;49.680;20.074;2023-04-09T02:39:33;97758.86;;;3.78;79.70
34205;BME280;20471;49.680;20.074;2023-04-09T02:42:01;97755.73;;;3.79;79.68
34205;BME280;20471;49.680;20.074;2023-04-09T02:44:29;97757.95;;;3.80;79.71
34205;BME280;20471;49.680;20.074;2023-04-09T02:46:57;97757.41;;;3.80;79.71
34205;BME280;20471;49.680;20.074;2023-04-09T02:49:25;97751.94;;;3.80;79.65
34205;BME280;20471;49.680;20.074;2023-04-09T02:51:53;97751.67;;;3.79;79.56
34205;BME280;20471;49.680;20.074;2023-04-09T02:54:21;97754.36;;;3.79;79.60
34205;BME280;20471;49.680;20.074;2023-04-09T02:56:49;97753.10;;;3.79;79.60
34205;BME280;20471;49.680;20.074;2023-04-09T02:59:17;97754.64;;;3.79;79.62
34205;BME280;20471;49.680;20.074;2023-04-09T03:01:45;97753.81;;;3.80;79.54
34205;BME280;20471;49.680;20.074;2023-04-09T03:04:13;97756.39;;;3.81;79.62
34205;BME280;20471;49.680;20.074;2023-04-09T03:06:41;97757.02;;;3.82;79.58
34205;BME280;20471;49.680;20.074;2023-04-09T03:09:09;97754.52;;;3.82;79.59
34205;BME280;20471;49.680;20.074;2023-04-09T03:11:37;97754.83;;;3.83;79.62
34205;BME280;20471;49.680;20.074;2023-04-09T03:14:05;97751.40;;;3.83;79.55
34205;BME280;20471;49.680;20.074;2023-04-09T03:16:33;97753.30;;;3.84;79.57
34205;BME280;20471;49.680;20.074;2023-04-09T03:19:01;97751.86;;;3.84;79.53
34205;BME280;20471;49.680;20.074;2023-04-09T03:21:29;97753.09;;;3.82;79.63
34205;BME280;20471;49.680;20.074;2023-04-09T03:23:58;97753.60;;;3.79;79.58
34205;BME280;20471;49.680;20.074;2023-04-09T03:26:27;97750.31;;;3.76;79.63
34205;BME280;20471;49.680;20.074;2023-04-09T03:29:02;97750.01;;;3.76;79.64
34205;BME280;20471;49.680;20.074;2023-04-09T03:31:31;97750.18;;;3.74;79.70
34205;BME280;20471;49.680;20.074;2023-04-09T03:33:59;97746.75;;;3.73;79.64
34205;BME280;20471;49.680;20.074;2023-04-09T03:36:27;97750.26;;;3.74;79.70
34205;BME280;20471;49.680;20.074;2023-04-09T03:38:55;97748.48;;;3.74;79.65
34205;BME280;20471;49.680;20.074;2023-04-09T03:41:25;97753.45;;;3.74;79.69
34205;BME280;20471;49.680;20.074;2023-04-09T03:43:53;97751.92;;;3.73;79.77
34205;BME280;20471;49.680;20.074;2023-04-09T03:46:21;97752.02;;;3.72;79.74
34205;BME280;20471;49.680;20.074;2023-04-09T03:48:50;97757.38;;;3.70;79.75
34205;BME280;20471;49.680;20.074;2023-04-09T03:51:18;97760.34;;;3.69;79.81
34205;BME280;20471;49.680;20.074;2023-04-09T03:53:46;97765.21;;;3.70;79.76
34205;BME280;20471;49.680;20.074;2023-04-09T03:56:14;97768.30;;;3.71;79.82
34205;BME280;20471;49.680;20.074;2023-04-09T03:58:42;97767.21;;;3.73;79.86
34205;BME280;20471;49.680;20.074;2023-04-09T04:01:11;97770.70;;;3.76;79.87
34205;BME280;20471;49.680;20.074;2023-04-09T04:03:39;97771.51;;;3.76;79.97
34205;BME280;20471;49.680;20.074;2023-04-09T04:06:07;97773.09;;;3.76;79.88
34205;BME280;20471;49.680;20.074;2023-04-09T04:08:35;97774.71;;;3.78;79.89
34205;BME280;20471;49.680;20.074;2023-04-09T04:11:03;97782.54;;;3.78;79.90
34205;BME280;20471;49.680;20.074;2023-04-09T04:13:32;97782.56;;;3.78;79.91
34205;BME280;20471;49.680;20.074;2023-04-09T04:16:00;97781.36;;;3.78;79.85
34205;BME280;20471;49.680;20.074;2023-04-09T04:18:28;97780.48;;;3.77;79.89
34205;BME280;20471;49.680;20.074;2023-04-09T04:20:56;97779.70;;;3.76;79.94
34205;BME280;20471;49.680;20.074;2023-04-09T04:23:24;97780.45;;;3.76;79.86
34205;BME280;20471;49.680;20.074;2023-04-09T04:25:52;97786.56;;;3.77;79.88
34205;BME280;20471;49.680;20.074;2023-04-09T04:28:20;97787.34;;;3.78;80.00
34205;BME280;20471;49.680;20.074;2023-04-09T04:30:48;97788.92;;;3.80;79.95
34205;BME280;20471;49.680;20.074;2023-04-09T04:33:16;97789.90;;;3.82;79.95
34205;BME280;20471;49.680;20.074;2023-04-09T04:35:44;97793.03;;;3.85;80.02
34205;BME280;20471;49.680;20.074;2023-04-09T04:38:13;97795.86;;;3.87;79.93
34205;BME280;20471;49.680;20.074;2023-04-09T04:40:41;97796.90;;;3.89;79.89
34205;BME280;20471;49.680;20.074;2023-04-09T04:43:09;97795.08;;;3.91;79.83
34205;BME280;20471;49.680;20.074;2023-04-09T04:45:37;97791.04;;;3.90;79.89
34205;BME280;20471;49.680;20.074;2023-04-09T04:48:05;97796.67;;;3.89;79.88
34205;BME280;20471;49.680;20.074;2023-04-09T04:50:33;97796.93;;;3.88;79.85
34205;BME280;20471;49.680;20.074;2023-04-09T04:53:01;97798.63;;;3.87;79.96
34205;BME280;20471;49.680;20.074;2023-04-09T04:55:29;97798.74;;;3.86;79.89
34205;BME280;20471;49.680;20.074;2023-04-09T04:57:57;97798.84;;;3.87;79.82
34205;BME280;20471;49.680;20.074;2023-04-09T05:00:25;97794.12;;;3.88;79.86
34205;BME280;20471;49.680;20.074;2023-04-09T05:02:53;97798.83;;;3.89;79.81
34205;BME280;20471;49.680;20.074;2023-04-09T05:05:21;97796.98;;;3.90;79.69
34205;BME280;20471;49.680;20.074;2023-04-09T05:07:49;97799.41;;;3.90;79.77
34205;BME280;20471;49.680;20.074;2023-04-09T05:10:17;97800.76;;;3.91;79.81
34205;BME280;20471;49.680;20.074;2023-04-09T05:12:46;97799.30;;;3.93;79.88
34205;BME280;20471;49.680;20.074;2023-04-09T05:15:14;97800.34;;;3.93;79.82
34205;BME280;20471;49.680;20.074;2023-04-09T05:17:42;97800.11;;;3.94;79.81
34205;BME280;20471;49.680;20.074;2023-04-09T05:20:11;97802.36;;;3.96;79.78
34205;BME280;20471;49.680;20.074;2023-04-09T05:22:39;97799.98;;;3.98;79.81
34205;BME280;20471;49.680;20.074;2023-04-09T05:25:07;97802.23;;;3.99;79.73
34205;BME280;20471;49.680;20.074;2023-04-09T05:27:36;97804.02;;;4.00;79.72
34205;BME280;20471;49.680;20.074;2023-04-09T05:30:04;97803.87;;;4.02;79.86
34205;BME280;20471;49.680;20.074;2023-04-09T05:32:33;97805.93;;;4.05;79.73
34205;BME280;20471;49.680;20.074;2023-04-09T05:35:01;97809.98;;;4.07;79.81
34205;BME280;20471;49.680;20.074;2023-04-09T05:37:29;97809.65;;;4.10;79.91
34205;BME280;20471;49.680;20.074;2023-04-09T05:39:57;97810.76;;;4.13;79.84
34205;BME280;20471;49.680;20.074;2023-04-09T05:42:25;97812.48;;;4.15;79.86
34205;BME280;20471;49.680;20.074;2023-04-09T05:44:53;97816.33;;;4.17;79.86
34205;BME280;20471;49.680;20.074;2023-04-09T05:47:22;97816.22;;;4.20;79.77
34205;BME280;20471;49.680;20.074;2023-04-09T05:49:50;97817.81;;;4.23;79.80
34205;BME280;20471;49.680;20.074;2023-04-09T05:52:18;97818.02;;;4.27;79.74
34205;BME280;20471;49.680;20.074;2023-04-09T05:54:47;97819.12;;;4.30;79.71
34205;BME280;20471;49.680;20.074;2023-04-09T05:57:15;97823.96;;;4.31;79.74
34205;BME280;20471;49.680;20.074;2023-04-09T05:59:43;97824.75;;;4.32;79.81
34205;BME280;20471;49.680;20.074;2023-04-09T06:02:11;97828.38;;;4.36;79.90
34205;BME280;20471;49.680;20.074;2023-04-09T06:04:39;97831.70;;;4.40;79.92
34205;BME280;20471;49.680;20.074;2023-04-09T06:07:07;97831.06;;;4.43;79.82
34205;BME280;20471;49.680;20.074;2023-04-09T06:09:35;97832.71;;;4.46;79.78
34205;BME280;20471;49.680;20.074;2023-04-09T06:12:03;97836.54;;;4.48;79.70
34205;BME280;20471;49.680;20.074;2023-04-09T06:14:31;97836.98;;;4.51;79.54
34205;BME280;20471;49.680;20.074;2023-04-09T06:16:59;97837.85;;;4.49;79.31
34205;BME280;20471;49.680;20.074;2023-04-09T06:19:27;97838.13;;;4.52;79.37
34205;BME280;20471;49.680;20.074;2023-04-09T06:21:56;97842.80;;;4.56;79.44
34205;BME280;20471;49.680;20.074;2023-04-09T06:24:24;97842.82;;;4.59;79.42
34205;BME280;20471;49.680;20.074;2023-04-09T06:26:52;97844.94;;;4.63;79.47
34205;BME280;20471;49.680;20.074;2023-04-09T06:29:20;97843.22;;;4.66;79.32
34205;BME280;20471;49.680;20.074;2023-04-09T06:31:48;97847.35;;;4.69;79.37
34205;BME280;20471;49.680;20.074;2023-04-09T06:34:17;97843.33;;;4.70;79.30
34205;BME280;20471;49.680;20.074;2023-04-09T06:36:45;97845.02;;;4.70;79.24
34205;BME280;20471;49.680;20.074;2023-04-09T06:39:13;97845.89;;;4.73;79.19
34205;BME280;20471;49.680;20.074;2023-04-09T06:41:41;97845.05;;;4.74;79.03
34205;BME280;20471;49.680;20.074;2023-04-09T06:44:09;97846.67;;;4.76;78.97
34205;BME280;20471;49.680;20.074;2023-04-09T06:46:37;97845.55;;;4.79;79.02
34205;BME280;20471;49.680;20.074;2023-04-09T06:49:05;97848.05;;;4.84;78.96
34205;BME280;20471;49.680;20.074;2023-04-09T06:51:33;97852.22;;;4.90;79.02
34205;BME280;20471;49.680;20.074;2023-04-09T06:54:01;97850.15;;;4.96;78.99
34205;BME280;20471;49.680;20.074;2023-04-09T06:56:29;97848.95;;;5.00;78.79
34205;BME280;20471;49.680;20.074;2023-04-09T06:58:58;97849.79;;;4.99;78.67
34205;BME280;20471;49.680;20.074;2023-04-09T07:01:26;97851.86;;;5.00;78.62
34205;BME280;20471;49.680;20.074;2023-04-09T07:03:54;97851.48;;;5.05;78.76
34205;BME280;20471;49.680;20.074;2023-04-09T07:06:22;97854.74;;;5.11;78.84
34205;BME280;20471;49.680;20.074;2023-04-09T07:08:50;97860.77;;;5.18;78.82
34205;BME280;20471;49.680;20.074;2023-04-09T07:11:19;97861.08;;;5.25;78.78
34205;BME280;20471;49.680;20.074;2023-04-09T07:13:47;97859.11;;;5.30;78.51
34205;BME280;20471;49.680;20.074;2023-04-09T07:16:15;97862.95;;;5.34;78.36
34205;BME280;20471;49.680;20.074;2023-04-09T07:18:43;97863.70;;;5.40;78.46
34205;BME280;20471;49.680;20.074;2023-04-09T07:21:12;97866.53;;;5.47;78.32
34205;BME280;20471;49.680;20.074;2023-04-09T07:23:40;97862.67;;;5.54;78.33
34205;BME280;20471;49.680;20.074;2023-04-09T07:26:08;97866.66;;;5.62;78.39
